Time;durP1;ratioP1;P1;durP2;ratioP2;P2;SDS_P1;SDS_P2;PMS_P1;PMS_P2;Temp;Humidity;BMP_temperature;BMP_pressure;BME280_temperature;BME280_humidity;BME280_pressure;Samples;Min_cycle;Max_cycle;Signal;HPM_P1;HPM_P2
2021/12/18 00:01:34;;;;;;;8.80;2.60;;;;;;;;;;4945169;28;20319;-70
2021/12/18 00:04:01;;;;;;;10.10;2.83;;;;;;;;;;4954583;28;20825;-69
2021/12/18 00:06:29;;;;;;;16.27;3.23;;;;;;;;;;4943551;28;20356;-70
2021/12/18 00:08:57;;;;;;;10.50;2.80;;;;;;;;;;4953234;28;20249;-69
2021/12/18 00:11:23;;;;;;;12.93;2.73;;;;;;;;;;4957159;28;20234;-69
2021/12/18 00:13:50;;;;;;;14.23;3.50;;;;;;;;;;4960017;28;20231;-69
2021/12/18 00:16:16;;;;;;;15.47;3.03;;;;;;;;;;4957502;28;20785;-70
2021/12/18 00:18:45;;;;;;;13.27;3.43;;;;;;;;;;4960368;28;20296;-71
2021/12/18 00:21:14;;;;;;;10.93;3.27;;;;;;;;;;4942368;28;20794;-71
2021/12/18 00:23:41;;;;;;;12.73;2.70;;;;;;;;;;4926815;28;20319;-71
2021/12/18 00:26:07;;;;;;;14.23;4.10;;;;;;;;;;4937194;28;20340;-69
2021/12/18 00:28:34;;;;;;;15.57;3.13;;;;;;;;;;4941576;28;20234;-69
2021/12/18 00:31:00;;;;;;;10.17;2.90;;;;;;;;;;4923329;28;20228;-71
2021/12/18 00:33:26;;;;;;;17.77;3.83;;;;;;;;;;4943222;28;20620;-70
2021/12/18 00:35:53;;;;;;;15.90;3.83;;;;;;;;;;4937978;28;20224;-70
2021/12/18 00:38:19;;;;;;;11.93;2.63;;;;;;;;;;4957804;28;20391;-69
2021/12/18 00:41:10;;;;;;;12.63;3.33;;;;;;;;;;4960593;28;20363;-68
2021/12/18 00:43:39;;;;;;;9.70;2.80;;;;;;;;;;4945383;28;20319;-69
2021/12/18 00:46:07;;;;;;;14.53;3.93;;;;;;;;;;4942722;28;20356;-70
2021/12/18 00:48:33;;;;;;;13.73;3.10;;;;;;;;;;4963176;28;20997;-69
2021/12/18 00:50:59;;;;;;;10.43;2.70;;;;;;;;;;4961015;28;20266;-70
2021/12/18 00:53:29;;;;;;;11.90;3.27;;;;;;;;;;4960572;28;20231;-71
2021/12/18 00:55:56;;;;;;;13.23;3.50;;;;;;;;;;4966947;28;20242;-70
2021/12/18 00:58:23;;;;;;;16.03;3.13;;;;;;;;;;4983023;28;20698;-70
2021/12/18 01:00:52;;;;;;;14.97;3.10;;;;;;;;;;4971421;28;20231;-70
2021/12/18 01:03:20;;;;;;;15.13;3.17;;;;;;;;;;4944863;28;20228;-68
2021/12/18 01:05:48;;;;;;;10.47;3.07;;;;;;;;;;4980165;28;20784;-70
2021/12/18 01:08:14;;;;;;;10.40;2.80;;;;;;;;;;4965919;28;20704;-69
2021/12/18 01:13:24;;;;;;;16.10;4.00;;;;;;;;;;4955143;28;20342;-69
2021/12/18 01:15:54;;;;;;;14.73;3.63;;;;;;;;;;4969929;28;20238;-70
2021/12/18 01:23:51;;;;;;;17.43;3.90;;;;;;;;;;4984598;28;20245;-71
2021/12/18 01:26:18;;;;;;;12.13;3.70;;;;;;;;;;4984529;28;20801;-71
2021/12/18 01:28:45;;;;;;;15.13;4.47;;;;;;;;;;4948868;28;20255;-69
2021/12/18 01:31:11;;;;;;;13.67;3.70;;;;;;;;;;4983072;28;20236;-70
2021/12/18 01:33:37;;;;;;;18.27;4.80;;;;;;;;;;4982844;28;21019;-70
2021/12/18 01:36:04;;;;;;;16.20;4.17;;;;;;;;;;4948800;28;20263;-70
2021/12/18 01:38:31;;;;;;;17.77;4.03;;;;;;;;;;4959231;28;20226;-69
2021/12/18 01:40:59;;;;;;;18.40;4.10;;;;;;;;;;4963445;28;20240;-69
2021/12/18 01:51:18;;;;;;;16.10;3.80;;;;;;;;;;4962684;28;20255;-69
2021/12/18 01:53:46;;;;;;;16.27;4.60;;;;;;;;;;4951893;28;20319;-70
2021/12/18 01:56:13;;;;;;;17.73;4.90;;;;;;;;;;4964730;28;20227;-69
2021/12/18 01:58:40;;;;;;;16.60;5.40;;;;;;;;;;4975475;28;20311;-69
2021/12/18 02:01:07;;;;;;;15.70;4.50;;;;;;;;;;4964606;28;20341;-69
2021/12/18 02:03:33;;;;;;;15.00;4.57;;;;;;;;;;4964789;28;20903;-68
2021/12/18 02:05:59;;;;;;;13.20;4.23;;;;;;;;;;4949487;28;20838;-69
2021/12/18 02:08:27;;;;;;;13.23;4.53;;;;;;;;;;4962632;28;20706;-68
2021/12/18 02:10:59;;;;;;;16.13;4.80;;;;;;;;;;4974432;28;20220;-68
2021/12/18 02:13:46;;;;;;;16.40;4.33;;;;;;;;;;4949570;28;20223;-68
2021/12/18 02:21:42;;;;;;;18.63;4.60;;;;;;;;;;4966590;28;20714;-69
2021/12/18 02:24:10;;;;;;;21.53;5.50;;;;;;;;;;4999216;28;20225;-69
2021/12/18 02:26:37;;;;;;;12.40;4.40;;;;;;;;;;4966088;28;20353;-70
2021/12/18 02:29:05;;;;;;;13.80;5.03;;;;;;;;;;4968991;28;20235;-68
2021/12/18 02:31:32;;;;;;;13.17;5.20;;;;;;;;;;4948931;28;20728;-70
2021/12/18 02:33:58;;;;;;;11.57;4.33;;;;;;;;;;4964590;28;20236;-69
2021/12/18 02:36:25;;;;;;;15.10;4.80;;;;;;;;;;4953101;28;20330;-69
2021/12/18 02:43:51;;;;;;;14.33;4.47;;;;;;;;;;4979483;28;21619;-70
2021/12/18 02:46:19;;;;;;;16.40;4.30;;;;;;;;;;4979064;28;20240;-70
2021/12/18 02:48:47;;;;;;;23.97;5.20;;;;;;;;;;4981187;28;20580;-70
2021/12/18 02:51:14;;;;;;;19.93;5.37;;;;;;;;;;4963734;28;20247;-69
2021/12/18 02:53:41;;;;;;;18.83;4.37;;;;;;;;;;4932059;28;20336;-70
2021/12/18 02:56:12;;;;;;;14.43;4.87;;;;;;;;;;4927176;28;20644;-70
2021/12/18 02:58:39;;;;;;;21.47;5.50;;;;;;;;;;4932354;28;20319;-70
2021/12/18 03:01:10;;;;;;;17.80;5.23;;;;;;;;;;4945455;28;20245;-69
2021/12/18 03:03:39;;;;;;;18.40;5.27;;;;;;;;;;4940526;28;20229;-70
2021/12/18 03:22:50;;;;;;;14.47;4.93;;;;;;;;;;4944712;28;20233;-69
2021/12/18 03:25:29;;;;;;;17.93;4.90;;;;;;;;;;4913549;28;20271;-70
2021/12/18 03:28:00;;;;;;;18.00;5.57;;;;;;;;;;4927117;28;20295;-70
2021/12/18 03:30:27;;;;;;;21.80;5.33;;;;;;;;;;4944084;28;20232;-70
2021/12/18 03:32:54;;;;;;;20.27;5.33;;;;;;;;;;4955339;28;20235;-70
2021/12/18 03:35:21;;;;;;;20.37;5.13;;;;;;;;;;4938847;28;20231;-71
2021/12/18 03:37:47;;;;;;;11.97;4.83;;;;;;;;;;4958284;28;20228;-71
2021/12/18 03:40:19;;;;;;;22.53;5.63;;;;;;;;;;4942460;28;20224;-70
2021/12/18 03:42:46;;;;;;;19.40;5.50;;;;;;;;;;4925714;28;20247;-69
2021/12/18 03:45:12;;;;;;;16.30;5.40;;;;;;;;;;4947189;28;20616;-70
2021/12/18 03:47:39;;;;;;;15.93;5.10;;;;;;;;;;4943163;28;20713;-70
2021/12/18 03:50:06;;;;;;;19.33;5.73;;;;;;;;;;4950413;28;20858;-69
2021/12/18 03:52:33;;;;;;;12.53;5.13;;;;;;;;;;4947988;28;20808;-70
2021/12/18 03:54:59;;;;;;;20.80;5.17;;;;;;;;;;4959126;28;20318;-70
2021/12/18 03:57:26;;;;;;;16.30;5.10;;;;;;;;;;4956795;28;20693;-69
2021/12/18 03:59:53;;;;;;;17.67;5.10;;;;;;;;;;4962215;28;20370;-68
2021/12/18 04:02:19;;;;;;;16.47;6.00;;;;;;;;;;4956304;28;20305;-70
2021/12/18 04:04:46;;;;;;;17.30;5.20;;;;;;;;;;4938224;28;20227;-70
2021/12/18 04:07:13;;;;;;;18.17;5.80;;;;;;;;;;4944044;28;20299;-70
2021/12/18 04:09:40;;;;;;;16.80;5.43;;;;;;;;;;4957251;28;20256;-69
2021/12/18 04:12:07;;;;;;;17.60;5.70;;;;;;;;;;4951889;28;20737;-69
2021/12/18 04:14:33;;;;;;;18.60;6.20;;;;;;;;;;4961709;28;20287;-70
2021/12/18 04:17:00;;;;;;;24.27;5.63;;;;;;;;;;4961301;28;20928;-69
2021/12/18 04:19:26;;;;;;;20.23;5.80;;;;;;;;;;4798761;28;20232;-74
2021/12/18 04:21:52;;;;;;;17.53;5.80;;;;;;;;;;4187672;28;20411;-73
2021/12/18 04:24:19;;;;;;;17.83;5.43;;;;;;;;;;4193602;28;20365;-73
2021/12/18 04:26:45;;;;;;;17.80;6.20;;;;;;;;;;4207609;28;20274;-73
2021/12/18 04:29:12;;;;;;;19.10;6.57;;;;;;;;;;4178608;28;20293;-74
2021/12/18 04:31:38;;;;;;;18.43;6.30;;;;;;;;;;4189599;28;23149;-73
2021/12/18 04:34:05;;;;;;;21.30;6.47;;;;;;;;;;4191152;28;20565;-73
2021/12/18 04:36:32;;;;;;;16.57;5.83;;;;;;;;;;4189779;28;25333;-73
2021/12/18 04:38:59;;;;;;;15.97;6.20;;;;;;;;;;4190119;28;20237;-74
2021/12/18 04:41:48;;;;;;;14.53;5.93;;;;;;;;;;4191054;28;20413;-72
2021/12/18 04:44:14;;;;;;;20.37;6.10;;;;;;;;;;4182017;28;20396;-73
2021/12/18 04:46:41;;;;;;;18.33;5.97;;;;;;;;;;4184546;28;20452;-72
2021/12/18 04:49:07;;;;;;;18.37;6.03;;;;;;;;;;4177953;28;20913;-73
2021/12/18 04:51:34;;;;;;;16.97;6.20;;;;;;;;;;4184794;28;20275;-73
2021/12/18 04:54:00;;;;;;;22.60;6.47;;;;;;;;;;4196401;28;20247;-74
2021/12/18 04:56:26;;;;;;;18.87;5.73;;;;;;;;;;4188586;28;20548;-73
2021/12/18 04:58:53;;;;;;;19.43;6.13;;;;;;;;;;4188638;28;25848;-73
2021/12/18 05:01:19;;;;;;;16.23;5.97;;;;;;;;;;4188531;28;20634;-74
2021/12/18 05:03:47;;;;;;;21.93;6.77;;;;;;;;;;4195115;28;20275;-74
2021/12/18 05:06:14;;;;;;;20.30;6.20;;;;;;;;;;4193546;28;20246;-73
2021/12/18 05:08:40;;;;;;;20.53;5.83;;;;;;;;;;4197325;28;20238;-73
2021/12/18 05:11:07;;;;;;;20.07;6.23;;;;;;;;;;4196921;28;20241;-73
2021/12/18 05:13:33;;;;;;;17.63;5.83;;;;;;;;;;4196518;28;25058;-73
2021/12/18 05:16:00;;;;;;;18.33;5.77;;;;;;;;;;4175678;28;20528;-71
2021/12/18 05:18:27;;;;;;;20.00;6.47;;;;;;;;;;4200288;28;25146;-73
2021/12/18 05:20:53;;;;;;;19.67;6.17;;;;;;;;;;4198978;28;22250;-74
2021/12/18 05:23:20;;;;;;;20.20;6.30;;;;;;;;;;4185211;28;20282;-74
2021/12/18 05:25:46;;;;;;;22.73;6.80;;;;;;;;;;4187578;28;23373;-73
2021/12/18 05:28:13;;;;;;;21.60;6.27;;;;;;;;;;4208216;28;20235;-75
2021/12/18 05:30:40;;;;;;;22.20;6.50;;;;;;;;;;4186491;28;20359;-72
2021/12/18 05:33:06;;;;;;;20.17;6.80;;;;;;;;;;4189652;28;20759;-73
2021/12/18 05:35:33;;;;;;;19.13;6.23;;;;;;;;;;4182240;28;20242;-73
2021/12/18 05:38:06;;;;;;;21.77;6.47;;;;;;;;;;4198024;28;20228;-72
2021/12/18 05:40:34;;;;;;;17.10;6.50;;;;;;;;;;4189191;28;20408;-72
2021/12/18 05:43:00;;;;;;;21.07;6.10;;;;;;;;;;4184984;28;20241;-72
2021/12/18 05:45:27;;;;;;;21.10;6.17;;;;;;;;;;4188781;28;20336;-74
2021/12/18 05:47:53;;;;;;;20.67;5.77;;;;;;;;;;4212644;28;20237;-75
2021/12/18 05:50:20;;;;;;;26.13;6.87;;;;;;;;;;4188179;28;20344;-73
2021/12/18 05:52:48;;;;;;;14.80;5.40;;;;;;;;;;4206664;28;20288;-72
2021/12/18 05:55:15;;;;;;;21.30;6.57;;;;;;;;;;4189945;28;21951;-73
2021/12/18 05:57:42;;;;;;;20.10;5.83;;;;;;;;;;4177610;28;20794;-72
2021/12/18 06:00:09;;;;;;;15.47;5.63;;;;;;;;;;4196892;28;22885;-73
2021/12/18 06:02:36;;;;;;;17.57;5.90;;;;;;;;;;4198907;28;22173;-72
2021/12/18 06:05:04;;;;;;;16.17;5.80;;;;;;;;;;4195880;28;20290;-71
2021/12/18 06:07:43;;;;;;;19.87;6.30;;;;;;;;;;4200464;28;20228;-72
2021/12/18 06:10:10;;;;;;;17.67;5.97;;;;;;;;;;4189757;28;20233;-72
2021/12/18 06:12:36;;;;;;;18.77;6.40;;;;;;;;;;4192830;28;20237;-74
2021/12/18 06:15:03;;;;;;;17.67;6.00;;;;;;;;;;4185847;28;20259;-73
2021/12/18 06:17:30;;;;;;;25.53;7.13;;;;;;;;;;4200430;28;20354;-72
2021/12/18 06:19:56;;;;;;;22.03;6.40;;;;;;;;;;4183080;28;20327;-74
2021/12/18 06:22:23;;;;;;;18.27;6.53;;;;;;;;;;4190702;28;20233;-72
2021/12/18 06:24:49;;;;;;;20.50;6.47;;;;;;;;;;4185252;28;20312;-72
2021/12/18 06:27:16;;;;;;;14.77;5.90;;;;;;;;;;4212427;28;21394;-73
2021/12/18 06:29:43;;;;;;;22.47;6.30;;;;;;;;;;4194456;28;20297;-71
2021/12/18 06:32:09;;;;;;;15.63;5.93;;;;;;;;;;4205753;28;20699;-72
2021/12/18 06:34:36;;;;;;;18.17;5.83;;;;;;;;;;4198620;28;20228;-72
2021/12/18 06:37:02;;;;;;;18.83;5.87;;;;;;;;;;4171963;28;20225;-74
2021/12/18 06:39:29;;;;;;;22.37;5.13;;;;;;;;;;4182097;28;20910;-73
2021/12/18 06:41:55;;;;;;;19.63;5.80;;;;;;;;;;4182540;28;23682;-74
2021/12/18 06:44:22;;;;;;;14.40;5.40;;;;;;;;;;4198659;28;20218;-73
2021/12/18 06:46:49;;;;;;;21.77;5.23;;;;;;;;;;4196838;28;20279;-73
2021/12/18 06:49:15;;;;;;;13.70;5.13;;;;;;;;;;4190023;28;20225;-74
2021/12/18 06:51:41;;;;;;;16.83;5.27;;;;;;;;;;4191789;28;20265;-72
2021/12/18 06:54:08;;;;;;;25.20;5.90;;;;;;;;;;4178924;28;20231;-72
2021/12/18 06:56:35;;;;;;;15.67;5.23;;;;;;;;;;4201308;28;20485;-73
2021/12/18 06:59:01;;;;;;;20.33;5.67;;;;;;;;;;4192714;28;20244;-76
2021/12/18 07:01:28;;;;;;;18.30;5.43;;;;;;;;;;4188426;28;20249;-73
2021/12/18 07:03:54;;;;;;;14.97;5.47;;;;;;;;;;4179753;28;20233;-68
2021/12/18 07:06:21;;;;;;;18.67;5.33;;;;;;;;;;4210177;28;20811;-72
2021/12/18 07:08:48;;;;;;;15.30;5.53;;;;;;;;;;4194834;28;20596;-72
2021/12/18 07:11:14;;;;;;;19.07;5.90;;;;;;;;;;4193925;28;20467;-73
2021/12/18 07:13:41;;;;;;;16.77;6.20;;;;;;;;;;4198322;28;20283;-70
2021/12/18 07:16:08;;;;;;;18.70;6.87;;;;;;;;;;4225720;28;20238;-72
2021/12/18 07:18:34;;;;;;;18.20;7.23;;;;;;;;;;4225184;28;20700;-71
2021/12/18 07:21:01;;;;;;;23.03;7.23;;;;;;;;;;4259658;28;20226;-70
2021/12/18 07:23:27;;;;;;;22.87;7.30;;;;;;;;;;4214746;28;20298;-72
2021/12/18 07:25:54;;;;;;;25.17;7.27;;;;;;;;;;4219928;28;20295;-76
2021/12/18 07:28:20;;;;;;;26.40;7.90;;;;;;;;;;4228098;28;21198;-71
2021/12/18 07:30:47;;;;;;;23.20;9.00;;;;;;;;;;4246415;28;20688;-71
2021/12/18 07:33:14;;;;;;;27.03;9.63;;;;;;;;;;4200460;28;20282;-72
2021/12/18 07:35:41;;;;;;;38.83;10.73;;;;;;;;;;4212291;28;21675;-71
2021/12/18 07:38:08;;;;;;;33.10;12.80;;;;;;;;;;4223727;28;20409;-72
2021/12/18 07:40:34;;;;;;;26.37;12.43;;;;;;;;;;4235887;28;20316;-70
2021/12/18 07:43:01;;;;;;;29.17;12.10;;;;;;;;;;4215645;28;23526;-71
2021/12/18 07:45:28;;;;;;;24.50;11.63;;;;;;;;;;4211169;28;20234;-70
2021/12/18 07:47:54;;;;;;;28.33;11.03;;;;;;;;;;4211293;28;22990;-71
2021/12/18 07:50:21;;;;;;;21.93;10.43;;;;;;;;;;4202873;28;25504;-71
2021/12/18 07:52:48;;;;;;;26.43;12.60;;;;;;;;;;4470796;23;20238;-69
2021/12/18 07:55:14;;;;;;;31.90;12.37;;;;;;;;;;4916638;28;20343;-73
2021/12/18 07:57:41;;;;;;;28.33;12.30;;;;;;;;;;4923089;28;20221;-70
2021/12/18 08:00:10;;;;;;;28.43;13.20;;;;;;;;;;4938367;28;20703;-70
2021/12/18 08:02:36;;;;;;;33.30;14.03;;;;;;;;;;4943464;28;20960;-74
2021/12/18 08:05:03;;;;;;;42.00;14.27;;;;;;;;;;4927427;28;20228;-69
2021/12/18 08:07:30;;;;;;;33.33;14.10;;;;;;;;;;4926895;28;20312;-71
2021/12/18 08:09:56;;;;;;;33.00;14.50;;;;;;;;;;4927329;28;20714;-74
2021/12/18 08:12:23;;;;;;;35.13;15.80;;;;;;;;;;4925453;28;20233;-71
2021/12/18 08:14:50;;;;;;;39.27;16.87;;;;;;;;;;4910348;29;20241;-71
2021/12/18 08:17:17;;;;;;;39.60;17.57;;;;;;;;;;4925239;28;20251;-71
2021/12/18 08:19:45;;;;;;;40.20;16.93;;;;;;;;;;4925599;28;20256;-72
2021/12/18 08:22:11;;;;;;;36.03;15.63;;;;;;;;;;4925702;28;20231;-72
2021/12/18 08:24:38;;;;;;;35.37;14.77;;;;;;;;;;4923595;28;20350;-76
2021/12/18 08:27:04;;;;;;;32.83;14.80;;;;;;;;;;4915019;28;20344;-73
2021/12/18 08:29:30;;;;;;;38.77;14.97;;;;;;;;;;4923091;28;20368;-71
2021/12/18 08:31:57;;;;;;;34.53;15.00;;;;;;;;;;4924223;28;20729;-70
2021/12/18 08:34:24;;;;;;;39.23;15.27;;;;;;;;;;4924150;28;20249;-70
2021/12/18 08:36:51;;;;;;;40.27;17.60;;;;;;;;;;4928298;28;20219;-71
2021/12/18 08:39:17;;;;;;;33.77;15.03;;;;;;;;;;4912623;29;20737;-68
2021/12/18 08:41:45;;;;;;;42.67;17.13;;;;;;;;;;4923470;28;20241;-72
2021/12/18 08:44:13;;;;;;;44.20;16.90;;;;;;;;;;4922473;28;20794;-71
2021/12/18 08:46:39;;;;;;;41.67;16.40;;;;;;;;;;4922287;28;20230;-71
2021/12/18 08:49:06;;;;;;;47.47;18.67;;;;;;;;;;4908451;29;20249;-71
2021/12/18 08:51:35;;;;;;;47.23;19.13;;;;;;;;;;4928919;28;20970;-72
2021/12/18 08:54:02;;;;;;;52.40;18.73;;;;;;;;;;4965243;28;20246;-72
2021/12/18 08:56:28;;;;;;;51.40;19.27;;;;;;;;;;4977987;28;22445;-70
2021/12/18 08:58:55;;;;;;;52.27;19.87;;;;;;;;;;4977473;28;20313;-70
2021/12/18 09:01:23;;;;;;;50.50;20.60;;;;;;;;;;4981865;28;20222;-69
2021/12/18 09:03:49;;;;;;;60.50;20.20;;;;;;;;;;4984800;28;20905;-70
2021/12/18 09:06:16;;;;;;;60.43;20.83;;;;;;;;;;4983893;28;20262;-69
2021/12/18 09:08:42;;;;;;;60.40;21.17;;;;;;;;;;4978794;28;20632;-70
2021/12/18 09:11:09;;;;;;;56.47;20.03;;;;;;;;;;4975119;28;20235;-70
2021/12/18 09:13:36;;;;;;;61.00;23.67;;;;;;;;;;4976832;28;20231;-70
2021/12/18 09:16:02;;;;;;;71.73;22.07;;;;;;;;;;4982964;28;20245;-68
2021/12/18 09:18:28;;;;;;;61.40;19.77;;;;;;;;;;4975866;28;21182;-69
2021/12/18 09:20:55;;;;;;;68.17;22.37;;;;;;;;;;4977486;28;20301;-70
2021/12/18 09:23:22;;;;;;;60.67;23.17;;;;;;;;;;4978560;28;20502;-72
2021/12/18 09:25:49;;;;;;;63.33;23.67;;;;;;;;;;4961394;28;20250;-69
2021/12/18 09:28:15;;;;;;;55.23;21.90;;;;;;;;;;4983210;28;20250;-65
2021/12/18 09:30:42;;;;;;;66.67;22.53;;;;;;;;;;4981907;28;20780;-69
2021/12/18 09:33:13;;;;;;;63.27;22.10;;;;;;;;;;4978024;28;20230;-67
2021/12/18 09:35:40;;;;;;;53.63;20.07;;;;;;;;;;4961833;28;20326;-68
2021/12/18 09:38:06;;;;;;;53.77;21.90;;;;;;;;;;4965102;28;20310;-68
2021/12/18 09:40:33;;;;;;;43.77;18.27;;;;;;;;;;4968335;28;20234;-68
2021/12/18 09:43:00;;;;;;;47.60;19.53;;;;;;;;;;4967900;28;20571;-68
2021/12/18 09:45:26;;;;;;;51.10;20.63;;;;;;;;;;4979730;28;20234;-70
2021/12/18 09:47:53;;;;;;;54.30;20.23;;;;;;;;;;4982999;28;20233;-73
2021/12/18 09:50:21;;;;;;;56.70;20.67;;;;;;;;;;5000428;28;20234;-72
2021/12/18 09:52:47;;;;;;;53.53;19.93;;;;;;;;;;4987559;28;20397;-68
2021/12/18 09:55:14;;;;;;;61.73;22.13;;;;;;;;;;4997792;28;20678;-69
2021/12/18 09:57:41;;;;;;;51.57;22.37;;;;;;;;;;4995157;28;21783;-67
2021/12/18 10:00:09;;;;;;;64.53;22.47;;;;;;;;;;4996527;28;20284;-70
2021/12/18 10:02:36;;;;;;;53.57;23.33;;;;;;;;;;4995910;28;20249;-67
2021/12/18 10:05:02;;;;;;;58.40;23.47;;;;;;;;;;4996168;28;22690;-68
2021/12/18 10:07:29;;;;;;;57.73;24.23;;;;;;;;;;4995077;28;20226;-70
2021/12/18 10:09:57;;;;;;;56.97;22.83;;;;;;;;;;4990720;28;20227;-70
2021/12/18 10:12:23;;;;;;;64.23;24.40;;;;;;;;;;4981176;28;20776;-69
2021/12/18 10:15:00;;;;;;;80.50;26.40;;;;;;;;;;5003002;28;20284;-70
2021/12/18 10:17:31;;;;;;;76.60;25.97;;;;;;;;;;5004717;28;20301;-67
2021/12/18 10:20:09;;;;;;;70.57;25.00;;;;;;;;;;4996309;28;20907;-69
2021/12/18 10:22:43;;;;;;;78.00;27.73;;;;;;;;;;5003781;28;20361;-68
2021/12/18 10:25:10;;;;;;;85.93;28.27;;;;;;;;;;4994647;28;20234;-69
2021/12/18 10:27:37;;;;;;;88.57;28.60;;;;;;;;;;4996375;28;20362;-69
2021/12/18 10:30:11;;;;;;;99.67;30.47;;;;;;;;;;4996040;28;20285;-72
2021/12/18 10:32:37;;;;;;;92.33;31.87;;;;;;;;;;4986900;28;20237;-70
2021/12/18 10:35:04;;;;;;;81.67;26.13;;;;;;;;;;5002390;28;20801;-71
2021/12/18 10:37:31;;;;;;;92.77;30.67;;;;;;;;;;4996286;28;20325;-69
2021/12/18 10:39:58;;;;;;;87.83;30.40;;;;;;;;;;4994268;28;20250;-70
2021/12/18 10:42:27;;;;;;;82.40;26.83;;;;;;;;;;4994663;28;20241;-79
2021/12/18 10:44:57;;;;;;;77.37;27.83;;;;;;;;;;4987039;28;20908;-69
2021/12/18 10:47:24;;;;;;;75.07;25.27;;;;;;;;;;4986149;28;20629;-78
2021/12/18 10:49:50;;;;;;;62.17;23.50;;;;;;;;;;4995436;28;20227;-70
2021/12/18 10:52:17;;;;;;;67.67;25.27;;;;;;;;;;4995107;28;20848;-69
2021/12/18 10:54:43;;;;;;;61.07;25.50;;;;;;;;;;5002639;28;20337;-69
2021/12/18 10:57:20;;;;;;;67.93;24.47;;;;;;;;;;4994873;28;20223;-69
2021/12/18 10:59:48;;;;;;;65.37;23.77;;;;;;;;;;4994204;28;20304;-69
2021/12/18 11:02:15;;;;;;;62.30;24.77;;;;;;;;;;4984210;28;20882;-69
2021/12/18 11:04:43;;;;;;;63.40;24.37;;;;;;;;;;4966637;28;20664;-68
2021/12/18 11:07:17;;;;;;;64.13;25.13;;;;;;;;;;4979212;28;20561;-66
2021/12/18 11:09:59;;;;;;;58.73;26.00;;;;;;;;;;4987709;28;20254;-66
2021/12/18 11:15:11;;;;;;;77.47;28.47;;;;;;;;;;4986451;28;20232;-68
2021/12/18 11:17:37;;;;;;;75.53;29.17;;;;;;;;;;4993721;28;20232;-68
2021/12/18 11:20:04;;;;;;;84.17;30.40;;;;;;;;;;4978672;28;20344;-71
2021/12/18 11:22:30;;;;;;;76.13;29.87;;;;;;;;;;5002884;28;20229;-68
2021/12/18 11:25:01;;;;;;;68.27;27.03;;;;;;;;;;4986613;28;20305;-69
2021/12/18 11:27:28;;;;;;;69.60;27.27;;;;;;;;;;4986830;28;20312;-68
2021/12/18 11:30:08;;;;;;;85.67;29.70;;;;;;;;;;4985920;28;20347;-67
2021/12/18 11:32:36;;;;;;;86.53;29.60;;;;;;;;;;4987065;28;20234;-70
2021/12/18 11:35:05;;;;;;;88.77;30.83;;;;;;;;;;4968476;28;20229;-68
2021/12/18 11:37:38;;;;;;;83.80;29.03;;;;;;;;;;5002589;28;20231;-66
2021/12/18 11:40:05;;;;;;;81.03;30.40;;;;;;;;;;4979133;28;20341;-69
2021/12/18 11:42:33;;;;;;;73.30;27.40;;;;;;;;;;4985744;28;20221;-65
2021/12/18 11:45:01;;;;;;;77.27;28.07;;;;;;;;;;4987706;28;21070;-68
2021/12/18 11:47:29;;;;;;;80.67;29.13;;;;;;;;;;4985087;28;20226;-66
2021/12/18 11:49:59;;;;;;;72.03;24.83;;;;;;;;;;4984208;28;20266;-65
2021/12/18 11:52:25;;;;;;;69.83;27.03;;;;;;;;;;4987760;28;21104;-71
2021/12/18 11:54:54;;;;;;;79.60;28.83;;;;;;;;;;4984226;28;20225;-69
2021/12/18 11:57:41;;;;;;;70.03;26.87;;;;;;;;;;4983270;28;20309;-71
2021/12/18 12:00:16;;;;;;;78.77;27.07;;;;;;;;;;4985358;28;20374;-71
2021/12/18 12:02:52;;;;;;;75.63;28.10;;;;;;;;;;4980587;28;20225;-70
2021/12/18 12:05:20;;;;;;;67.90;25.80;;;;;;;;;;4989301;28;20226;-70
2021/12/18 12:07:46;;;;;;;67.93;25.87;;;;;;;;;;4990531;28;20232;-71
2021/12/18 12:10:46;;;;;;;67.53;24.23;;;;;;;;;;4996551;28;20310;-71
2021/12/18 12:13:09;;;;;;;68.93;22.17;;;;;;;;;;4981526;28;21256;-70
2021/12/18 12:15:49;;;;;;;76.40;26.80;;;;;;;;;;4991025;28;21121;-69
2021/12/18 12:18:16;;;;;;;67.27;24.17;;;;;;;;;;4975981;28;20258;-69
2021/12/18 12:20:43;;;;;;;67.73;26.20;;;;;;;;;;4992610;28;20261;-70
2021/12/18 12:23:10;;;;;;;61.47;25.47;;;;;;;;;;4982879;28;20320;-70
2021/12/18 12:25:38;;;;;;;60.70;23.93;;;;;;;;;;4983230;28;20988;-69
2021/12/18 12:28:07;;;;;;;70.90;25.80;;;;;;;;;;4984580;28;20245;-70
2021/12/18 12:30:43;;;;;;;59.83;24.47;;;;;;;;;;4976999;28;20339;-70
2021/12/18 12:33:21;;;;;;;57.97;24.87;;;;;;;;;;4982862;28;20238;-70
2021/12/18 12:35:55;;;;;;;61.67;24.43;;;;;;;;;;4967252;28;20261;-71
2021/12/18 12:38:26;;;;;;;55.33;22.67;;;;;;;;;;4965490;28;20230;-72
2021/12/18 12:40:56;;;;;;;73.13;26.57;;;;;;;;;;4983765;28;20226;-69
2021/12/18 12:43:26;;;;;;;62.97;22.47;;;;;;;;;;4984344;28;20234;-72
2021/12/18 12:45:58;;;;;;;70.60;25.13;;;;;;;;;;4980596;28;20299;-67
2021/12/18 12:48:24;;;;;;;59.73;24.80;;;;;;;;;;4982327;28;20226;-64
2021/12/18 12:50:59;;;;;;;56.47;23.23;;;;;;;;;;4986365;28;20800;-65
2021/12/18 12:53:44;;;;;;;61.10;23.87;;;;;;;;;;4966969;28;20233;-65
2021/12/18 12:56:14;;;;;;;66.40;27.00;;;;;;;;;;4983634;28;20222;-63
2021/12/18 12:58:41;;;;;;;59.30;23.07;;;;;;;;;;4987019;28;20314;-64
2021/12/18 13:01:08;;;;;;;62.60;24.13;;;;;;;;;;5001115;28;20223;-67
2021/12/18 13:03:36;;;;;;;55.97;24.20;;;;;;;;;;4993904;28;20230;-66
2021/12/18 13:06:10;;;;;;;61.63;24.83;;;;;;;;;;4984374;28;20232;-67
2021/12/18 13:08:38;;;;;;;67.20;25.67;;;;;;;;;;4968383;28;20231;-66
2021/12/18 13:11:05;;;;;;;72.23;26.30;;;;;;;;;;4986320;28;20225;-67
2021/12/18 13:13:35;;;;;;;69.03;25.77;;;;;;;;;;4984604;28;20230;-65
2021/12/18 13:16:04;;;;;;;62.77;25.53;;;;;;;;;;4985934;28;20230;-68
2021/12/18 13:18:32;;;;;;;65.77;24.63;;;;;;;;;;4973649;28;20230;-65
2021/12/18 13:21:01;;;;;;;56.23;22.40;;;;;;;;;;4980725;28;20222;-67
2021/12/18 13:23:38;;;;;;;59.33;24.33;;;;;;;;;;4967655;28;20238;-66
2021/12/18 13:26:09;;;;;;;56.67;22.87;;;;;;;;;;4984470;28;20391;-65
2021/12/18 13:28:44;;;;;;;57.97;21.10;;;;;;;;;;4988351;28;20226;-65
2021/12/18 13:31:11;;;;;;;71.07;26.40;;;;;;;;;;4987646;28;20783;-67
2021/12/18 13:33:37;;;;;;;80.47;27.50;;;;;;;;;;4978057;28;20840;-67
2021/12/18 13:36:04;;;;;;;80.17;26.57;;;;;;;;;;4995478;28;20234;-65
2021/12/18 13:38:35;;;;;;;75.50;26.63;;;;;;;;;;4985578;28;21084;-65
2021/12/18 13:41:02;;;;;;;64.90;27.20;;;;;;;;;;4987052;28;20230;-67
2021/12/18 13:43:28;;;;;;;74.80;26.03;;;;;;;;;;4993651;28;20236;-67
2021/12/18 13:45:59;;;;;;;70.00;25.13;;;;;;;;;;5001431;28;21144;-66
2021/12/18 13:48:28;;;;;;;75.67;26.40;;;;;;;;;;4985784;28;20270;-67
2021/12/18 13:50:59;;;;;;;92.60;30.53;;;;;;;;;;4986389;28;20215;-67
2021/12/18 13:53:26;;;;;;;93.00;31.97;;;;;;;;;;4985594;28;20261;-68
2021/12/18 13:55:57;;;;;;;77.50;28.00;;;;;;;;;;4985497;28;20313;-68
2021/12/18 13:58:28;;;;;;;90.37;30.80;;;;;;;;;;4969314;28;20238;-65
2021/12/18 14:00:57;;;;;;;99.33;29.13;;;;;;;;;;4985093;28;20230;-66
2021/12/18 14:03:31;;;;;;;92.47;29.93;;;;;;;;;;4998927;28;20303;-66
2021/12/18 14:06:18;;;;;;;86.10;29.17;;;;;;;;;;4984583;28;20710;-67
2021/12/18 14:08:47;;;;;;;96.20;30.07;;;;;;;;;;4972757;28;20224;-66
2021/12/18 14:11:15;;;;;;;107.30;30.97;;;;;;;;;;4977152;28;20282;-68
2021/12/18 14:13:46;;;;;;;95.23;31.10;;;;;;;;;;4983080;28;20233;-66
2021/12/18 14:16:12;;;;;;;92.73;30.20;;;;;;;;;;4982723;28;21424;-66
2021/12/18 14:18:47;;;;;;;103.10;32.63;;;;;;;;;;4993711;28;21204;-68
2021/12/18 14:21:14;;;;;;;115.77;32.80;;;;;;;;;;4980953;28;20220;-67
2021/12/18 14:23:41;;;;;;;130.97;35.07;;;;;;;;;;4984597;28;20316;-67
2021/12/18 14:26:12;;;;;;;110.33;31.80;;;;;;;;;;4981418;28;20306;-68
2021/12/18 14:28:38;;;;;;;127.63;35.37;;;;;;;;;;4978751;28;20218;-67
2021/12/18 14:31:24;;;;;;;136.43;34.23;;;;;;;;;;4983932;28;20304;-65
2021/12/18 14:33:57;;;;;;;136.83;35.77;;;;;;;;;;4966982;28;20665;-69
2021/12/18 14:36:47;;;;;;;137.70;37.13;;;;;;;;;;4982917;28;20226;-69
2021/12/18 14:39:17;;;;;;;146.30;37.50;;;;;;;;;;4984909;28;20226;-66
2021/12/18 14:41:54;;;;;;;133.63;33.53;;;;;;;;;;4984094;28;20246;-67
2021/12/18 14:44:21;;;;;;;165.30;39.53;;;;;;;;;;4980232;28;20249;-66
2021/12/18 14:47:07;;;;;;;161.70;39.20;;;;;;;;;;4983508;28;20226;-66
2021/12/18 14:49:34;;;;;;;167.87;39.03;;;;;;;;;;4993788;28;20228;-66
2021/12/18 14:52:03;;;;;;;162.10;39.73;;;;;;;;;;4982804;28;20269;-66
2021/12/18 14:54:29;;;;;;;166.87;40.47;;;;;;;;;;4982837;28;20673;-64
2021/12/18 14:57:15;;;;;;;152.77;40.17;;;;;;;;;;4991901;28;20344;-66
2021/12/18 14:59:41;;;;;;;171.07;40.50;;;;;;;;;;4983044;28;21618;-66
2021/12/18 15:02:08;;;;;;;157.80;37.73;;;;;;;;;;4992734;28;20256;-65
2021/12/18 15:04:35;;;;;;;155.47;38.83;;;;;;;;;;4999098;28;20632;-65
2021/12/18 15:07:02;;;;;;;155.97;37.27;;;;;;;;;;4998011;28;20248;-66
2021/12/18 15:09:28;;;;;;;140.47;39.40;;;;;;;;;;4992171;28;20221;-65
2021/12/18 15:11:59;;;;;;;146.87;39.33;;;;;;;;;;4999824;28;20230;-67
2021/12/18 15:14:33;;;;;;;138.17;36.87;;;;;;;;;;4966481;28;21044;-66